Time;durP1;ratioP1;P1;durP2;ratioP2;P2;SDS_P1;SDS_P2;PMS_P1;PMS_P2;Temp;Humidity;BMP_temperature;BMP_pressure;BME280_temperature;BME280_humidity;BME280_pressure;Samples;Min_cycle;Max_cycle;Signal;HPM_P1;HPM_P2
2022/01/26 00:00:19;;;;;;;23.00;10.90;;;;;;;1.23;100.00;99958.78;4985687;28;20050;-59
2022/01/26 00:05:48;;;;;;;21.43;11.00;;;;;;;1.23;100.00;99946.97;4981445;28;20116;-58
2022/01/26 00:08:13;;;;;;;18.33;8.98;;;;;;;1.18;100.00;99952.69;4985494;28;20038;-59
2022/01/26 00:10:38;;;;;;;20.97;9.53;;;;;;;1.23;100.00;99946.16;4984239;28;20052;-57
2022/01/26 00:13:04;;;;;;;16.23;9.47;;;;;;;1.22;100.00;99941.91;4981754;28;20034;-59
2022/01/26 00:15:30;;;;;;;15.03;8.00;;;;;;;1.23;100.00;99941.94;4984097;28;20098;-60
2022/01/26 00:17:57;;;;;;;21.47;10.23;;;;;;;1.22;100.00;99939.38;4985393;28;20061;-60
2022/01/26 00:20:32;;;;;;;21.87;9.30;;;;;;;1.24;100.00;99932.69;4983116;28;20072;-60
2022/01/26 00:26:10;;;;;;;19.63;10.13;;;;;;;1.21;100.00;99932.59;4978247;28;20626;-60
2022/01/26 00:39:14;;;;;;;19.00;8.47;;;;;;;1.28;100.00;99934.53;4980552;28;20137;-59
2022/01/26 00:41:40;;;;;;;20.70;8.70;;;;;;;1.31;100.00;99942.25;4977430;28;20039;-60
2022/01/26 00:44:07;;;;;;;16.77;8.57;;;;;;;1.31;100.00;99934.69;4976438;28;20583;-57
2022/01/26 00:46:34;;;;;;;22.63;8.97;;;;;;;1.30;100.00;99938.00;4978320;28;20326;-59
2022/01/26 00:49:00;;;;;;;17.50;8.03;;;;;;;1.26;100.00;99939.56;4975335;28;20132;-59
2022/01/26 00:51:25;;;;;;;17.57;8.10;;;;;;;1.26;100.00;99941.22;4976107;28;20477;-60
2022/01/26 00:54:05;;;;;;;16.17;7.87;;;;;;;1.17;100.00;99930.75;4976663;28;20152;-59
2022/01/26 00:56:31;;;;;;;16.80;7.90;;;;;;;1.20;100.00;99933.38;4981456;28;20098;-60
2022/01/26 00:58:56;;;;;;;20.07;8.20;;;;;;;1.13;100.00;99933.94;4976957;28;20402;-59
2022/01/26 01:01:22;;;;;;;18.43;8.73;;;;;;;1.16;100.00;99942.50;4976292;28;20591;-60
2022/01/26 01:03:48;;;;;;;20.40;10.27;;;;;;;1.15;100.00;99940.78;4981693;28;20100;-59
2022/01/26 01:06:34;;;;;;;19.33;7.83;;;;;;;1.17;100.00;99941.72;4985697;28;20072;-60
2022/01/26 01:09:00;;;;;;;20.43;8.73;;;;;;;1.16;100.00;99945.03;4981116;28;20108;-60
2022/01/26 01:11:26;;;;;;;21.30;10.07;;;;;;;1.13;100.00;99944.06;4979708;28;20286;-58
2022/01/26 01:13:52;;;;;;;17.23;9.37;;;;;;;1.12;100.00;99947.38;4983769;28;20453;-60
2022/01/26 01:16:21;;;;;;;23.50;11.23;;;;;;;1.14;100.00;99938.22;4984808;28;20460;-60
2022/01/26 01:29:40;;;;;;;19.23;9.73;;;;;;;1.13;100.00;99932.28;4976162;28;20050;-59
2022/01/26 01:32:13;;;;;;;20.45;10.10;;;;;;;1.17;100.00;99934.13;4978419;28;20042;-60
2022/01/26 01:34:39;;;;;;;20.87;10.63;;;;;;;1.19;100.00;99934.22;4981346;28;20052;-59
2022/01/26 01:37:08;;;;;;;21.67;9.50;;;;;;;1.26;100.00;99949.66;4977931;28;20045;-60
2022/01/26 01:39:36;;;;;;;21.17;9.03;;;;;;;1.24;100.00;99942.81;4975308;28;20026;-60
2022/01/26 01:42:04;;;;;;;19.17;10.20;;;;;;;1.26;100.00;99941.22;4978949;28;20046;-59
2022/01/26 01:44:29;;;;;;;19.70;9.30;;;;;;;1.21;100.00;99942.69;4978903;28;20065;-59
2022/01/26 01:46:56;;;;;;;23.40;12.30;;;;;;;1.23;100.00;99928.47;4977341;28;20046;-58
2022/01/26 01:49:23;;;;;;;21.47;8.00;;;;;;;1.18;100.00;99925.75;4976951;28;20063;-58
2022/01/26 01:51:53;;;;;;;20.80;8.67;;;;;;;1.16;100.00;99929.00;4980035;28;20579;-58
2022/01/26 01:54:19;;;;;;;20.40;9.93;;;;;;;1.14;100.00;99926.44;4980039;28;20161;-58
2022/01/26 01:56:54;;;;;;;20.40;9.20;;;;;;;1.23;100.00;99920.91;4979020;28;20062;-58
2022/01/26 01:59:20;;;;;;;20.80;9.98;;;;;;;1.22;100.00;99924.22;4978033;28;20061;-59
2022/01/26 02:01:46;;;;;;;22.03;10.23;;;;;;;1.15;100.00;99925.63;4981118;28;20046;-57
2022/01/26 02:04:11;;;;;;;25.33;11.43;;;;;;;1.10;100.00;99918.69;4983822;28;20027;-59
2022/01/26 02:06:37;;;;;;;20.87;9.97;;;;;;;1.09;100.00;99922.00;4978876;28;20125;-59
2022/01/26 02:09:03;;;;;;;24.43;11.20;;;;;;;1.08;100.00;99927.84;4979312;28;20550;-60
2022/01/26 02:11:29;;;;;;;18.70;10.30;;;;;;;1.05;100.00;99918.50;4984244;28;20038;-58
2022/01/26 02:14:09;;;;;;;23.37;10.63;;;;;;;1.08;100.00;99910.19;4983744;28;20456;-58
2022/01/26 02:57:04;;;;;;;19.63;9.57;;;;;;;1.07;100.00;99895.81;4979761;28;20043;-60
2022/01/26 03:02:53;;;;;;;18.50;8.47;;;;;;;1.07;100.00;99893.31;4981719;28;20208;-60
2022/01/26 03:05:07;;;;;;;19.10;8.30;;;;;;;1.07;100.00;99886.59;4979820;28;20279;-59
2022/01/26 03:08:07;;;;;;;21.93;8.13;;;;;;;1.07;100.00;99886.59;4983493;28;20571;-59
2022/01/26 03:10:35;;;;;;;20.10;8.27;;;;;;;1.10;100.00;99883.34;4984494;28;20046;-59
2022/01/26 03:15:53;;;;;;;17.60;7.43;;;;;;;1.13;100.00;99884.31;4984251;28;20313;-58
2022/01/26 03:18:45;;;;;;;13.70;6.73;;;;;;;1.10;100.00;99878.28;4985356;28;20516;-60
2022/01/26 03:21:06;;;;;;;15.30;8.40;;;;;;;1.20;100.00;99882.88;4984886;28;20560;-59
2022/01/26 03:34:12;;;;;;;14.93;6.73;;;;;;;1.12;100.00;99891.81;4984552;28;20108;-59
2022/01/26 03:39:13;;;;;;;14.77;7.37;;;;;;;1.14;100.00;99898.66;4986984;28;20312;-59
2022/01/26 03:41:43;;;;;;;16.13;7.47;;;;;;;1.19;100.00;99892.09;4982456;28;20401;-60
2022/01/26 03:44:09;;;;;;;12.13;6.83;;;;;;;1.17;100.00;99893.72;4984537;28;20115;-58
2022/01/26 03:46:35;;;;;;;13.17;6.93;;;;;;;1.25;100.00;99897.41;4984590;28;20438;-59
2022/01/26 03:49:01;;;;;;;15.57;7.70;;;;;;;1.22;100.00;99889.72;4983658;28;20515;-59
2022/01/26 03:51:27;;;;;;;13.77;6.97;;;;;;;1.24;100.00;99889.75;4984416;28;20350;-59
2022/01/26 03:53:53;;;;;;;14.40;7.13;;;;;;;1.19;100.00;99897.16;4985161;28;20057;-60
2022/01/26 03:56:18;;;;;;;16.37;7.27;;;;;;;1.16;100.00;99886.94;4983721;28;20034;-59
2022/01/26 03:58:44;;;;;;;14.57;7.00;;;;;;;1.17;100.00;99900.44;4982289;28;20042;-60
2022/01/26 04:01:09;;;;;;;11.37;6.13;;;;;;;1.12;100.00;99901.91;4984786;28;20797;-59
2022/01/26 04:03:34;;;;;;;15.87;8.03;;;;;;;1.22;100.00;99893.91;4985236;28;20408;-59
2022/01/26 04:06:00;;;;;;;18.13;8.27;;;;;;;1.09;100.00;99882.47;4983568;28;20073;-59
2022/01/26 04:08:29;;;;;;;13.80;6.90;;;;;;;1.17;100.00;99886.16;4982075;28;20038;-59
2022/01/26 04:13:26;;;;;;;13.93;6.87;;;;;;;1.10;100.00;99888.38;4984616;28;20034;-60
2022/01/26 04:15:51;;;;;;;14.23;6.90;;;;;;;1.12;100.00;99891.81;4983735;28;20041;-60
2022/01/26 04:18:22;;;;;;;20.93;6.63;;;;;;;1.13;100.00;99893.56;4981419;28;20030;-60
2022/01/26 04:20:52;;;;;;;15.83;7.80;;;;;;;1.14;100.00;99891.09;4984997;28;20212;-59
2022/01/26 04:23:36;;;;;;;14.97;6.50;;;;;;;1.11;100.00;99885.91;4983868;28;20037;-59
2022/01/26 04:26:02;;;;;;;11.93;6.17;;;;;;;1.08;100.00;99895.03;4983227;28;20034;-59
2022/01/26 04:28:35;;;;;;;14.27;6.03;;;;;;;1.21;100.00;99877.88;4982521;28;20472;-59
2022/01/26 04:31:00;;;;;;;13.00;6.23;;;;;;;1.10;100.00;99896.84;4983361;28;20050;-57
2022/01/26 04:33:26;;;;;;;15.37;6.97;;;;;;;1.07;100.00;99881.53;4983220;28;20145;-59
2022/01/26 04:35:52;;;;;;;12.73;6.40;;;;;;;1.17;100.00;99888.69;4983751;28;20034;-59
2022/01/26 04:38:31;;;;;;;11.43;5.33;;;;;;;1.13;100.00;99885.97;4983281;28;20424;-57
2022/01/26 04:41:10;;;;;;;10.20;5.07;;;;;;;1.15;100.00;99882.69;4985227;28;20039;-58
2022/01/26 04:43:39;;;;;;;9.50;5.33;;;;;;;1.16;100.00;99886.94;4982690;28;20073;-58
2022/01/26 04:46:05;;;;;;;10.20;5.23;;;;;;;1.15;100.00;99880.16;4983830;28;20026;-59
2022/01/26 04:48:31;;;;;;;12.50;5.77;;;;;;;1.15;100.00;99877.63;4985717;28;20176;-59
2022/01/26 04:50:56;;;;;;;10.73;5.13;;;;;;;1.19;100.00;99869.38;4985614;28;20069;-60
2022/01/26 04:53:22;;;;;;;8.77;3.90;;;;;;;1.16;100.00;99873.47;4982183;28;20377;-59
2022/01/26 04:55:47;;;;;;;10.00;4.63;;;;;;;1.17;100.00;99871.00;4981421;28;20081;-58
2022/01/26 04:58:13;;;;;;;7.03;3.63;;;;;;;1.21;100.00;99877.03;4984357;28;20467;-57
2022/01/26 05:00:38;;;;;;;7.33;4.33;;;;;;;1.18;100.00;99869.34;4984318;28;20048;-59
2022/01/26 05:03:04;;;;;;;11.00;4.27;;;;;;;1.16;100.00;99870.94;4982500;28;20046;-60
2022/01/26 05:05:29;;;;;;;6.87;3.80;;;;;;;1.17;100.00;99867.59;4980754;28;20030;-58
2022/01/26 05:07:55;;;;;;;10.43;4.47;;;;;;;1.15;100.00;99866.69;4984688;28;20468;-59
2022/01/26 05:10:21;;;;;;;10.13;5.10;;;;;;;1.18;100.00;99860.09;4983728;28;20449;-60
2022/01/26 05:12:47;;;;;;;10.63;4.30;;;;;;;1.19;100.00;99859.28;4981595;28;20420;-59
2022/01/26 05:15:12;;;;;;;6.23;3.87;;;;;;;1.17;100.00;99857.50;4980782;28;20052;-59
2022/01/26 05:17:39;;;;;;;7.37;3.70;;;;;;;1.19;100.00;99855.91;4985484;28;20030;-55
2022/01/26 05:20:08;;;;;;;7.47;4.00;;;;;;;1.16;100.00;99861.69;4983478;28;20026;-58
2022/01/26 05:22:33;;;;;;;8.13;4.60;;;;;;;1.17;100.00;99873.53;4981471;28;20038;-58
2022/01/26 05:24:59;;;;;;;10.37;4.77;;;;;;;1.21;100.00;99877.03;4981535;28;20376;-64
2022/01/26 05:27:24;;;;;;;10.20;4.80;;;;;;;1.21;100.00;99875.38;4985132;28;20042;-59
2022/01/26 05:29:49;;;;;;;9.63;4.17;;;;;;;1.15;100.00;99869.19;4982900;28;20484;-59
2022/01/26 05:32:15;;;;;;;8.83;4.93;;;;;;;1.11;100.00;99869.88;4981781;28;20038;-59
2022/01/26 05:34:40;;;;;;;8.93;5.10;;;;;;;1.15;100.00;99880.16;4980765;28;20483;-59
2022/01/26 05:37:06;;;;;;;12.87;5.70;;;;;;;1.12;100.00;99869.09;4983470;28;20030;-59
2022/01/26 05:39:32;;;;;;;13.07;6.47;;;;;;;1.08;100.00;99880.75;4982459;28;20030;-58
2022/01/26 05:41:58;;;;;;;9.97;4.97;;;;;;;1.11;100.00;99882.50;4980550;28;20033;-60
2022/01/26 05:44:23;;;;;;;10.30;4.70;;;;;;;1.12;100.00;99892.69;4981293;28;20544;-60
2022/01/26 05:46:50;;;;;;;11.57;5.10;;;;;;;1.11;100.00;99872.41;4983720;28;20473;-58
2022/01/26 05:49:17;;;;;;;12.13;5.27;;;;;;;1.04;100.00;99881.44;4982519;28;20037;-58
2022/01/26 05:51:46;;;;;;;10.27;5.27;;;;;;;1.07;100.00;99880.66;4980418;28;20646;-59
2022/01/26 05:54:13;;;;;;;9.33;5.13;;;;;;;1.11;100.00;99883.38;4982377;28;20086;-60
2022/01/26 05:56:42;;;;;;;10.23;4.70;;;;;;;1.11;100.00;99895.13;4982779;28;20034;-59
2022/01/26 05:59:07;;;;;;;10.37;5.27;;;;;;;1.03;100.00;99887.28;4982792;28;20105;-57
2022/01/26 06:01:33;;;;;;;13.43;6.17;;;;;;;1.02;100.00;99884.72;4981284;28;20270;-59
2022/01/26 06:03:58;;;;;;;16.00;5.40;;;;;;;1.08;100.00;99897.56;4979943;28;20037;-58
2022/01/26 06:06:23;;;;;;;12.70;5.53;;;;;;;1.07;100.00;99900.88;4981066;28;20026;-56
2022/01/26 06:08:49;;;;;;;8.73;4.87;;;;;;;1.08;100.00;99902.59;4979339;28;20059;-57
2022/01/26 06:11:14;;;;;;;10.93;4.80;;;;;;;1.15;100.00;99894.44;4978053;28;20027;-57
2022/01/26 06:13:40;;;;;;;12.20;5.90;;;;;;;1.14;100.00;99898.66;4983901;28;20034;-59
2022/01/26 06:16:05;;;;;;;10.73;6.57;;;;;;;1.10;100.00;99899.34;4984342;28;20053;-58
2022/01/26 06:18:31;;;;;;;13.70;6.20;;;;;;;1.13;100.00;99908.69;4980979;28;20128;-54
2022/01/26 06:20:56;;;;;;;13.33;6.13;;;;;;;1.15;100.00;99907.09;4980860;28;20704;-55
2022/01/26 06:23:26;;;;;;;16.27;6.93;;;;;;;1.13;100.00;99909.56;4982403;28;20040;-57
2022/01/26 06:25:56;;;;;;;16.33;6.97;;;;;;;1.13;100.00;99904.50;4984232;28;20532;-55
2022/01/26 06:28:24;;;;;;;11.10;5.80;;;;;;;1.06;100.00;99907.59;4979391;28;20030;-53
2022/01/26 06:30:54;;;;;;;14.60;7.30;;;;;;;1.09;100.00;99894.22;4977793;28;20462;-58
2022/01/26 06:33:21;;;;;;;12.20;6.40;;;;;;;1.04;100.00;99899.09;4980111;28;20026;-58
2022/01/26 06:35:46;;;;;;;12.03;6.07;;;;;;;0.98;100.00;99896.31;4983225;28;20026;-57
2022/01/26 06:38:14;;;;;;;17.57;7.10;;;;;;;1.03;100.00;99901.56;4980520;28;20073;-57
2022/01/26 06:40:39;;;;;;;14.23;7.10;;;;;;;1.03;100.00;99910.00;4982500;28;20485;-58
2022/01/26 06:43:10;;;;;;;14.40;6.63;;;;;;;1.08;100.00;99903.47;4984122;28;20049;-55
2022/01/26 06:45:42;;;;;;;15.60;7.93;;;;;;;1.13;100.00;99914.63;4985383;28;20125;-58
2022/01/26 06:50:51;;;;;;;15.27;8.23;;;;;;;1.03;100.00;99909.13;4985888;28;20060;-57
2022/01/26 06:53:17;;;;;;;14.63;6.63;;;;;;;0.96;100.00;99894.56;4984604;28;20693;-58
2022/01/26 06:55:43;;;;;;;14.10;7.37;;;;;;;0.96;100.00;99910.56;4984354;28;20647;-57
2022/01/26 06:58:08;;;;;;;16.00;7.50;;;;;;;0.95;100.00;99898.75;4981237;28;20060;-57
2022/01/26 07:00:34;;;;;;;15.03;7.53;;;;;;;0.99;100.00;99902.25;4986397;28;20034;-58
2022/01/26 07:03:00;;;;;;;15.13;7.07;;;;;;;1.01;100.00;99882.97;4985766;28;20619;-58
2022/01/26 07:05:25;;;;;;;13.00;6.30;;;;;;;0.91;100.00;99912.03;4983797;28;20491;-57
2022/01/26 07:07:51;;;;;;;15.63;6.50;;;;;;;0.95;100.00;99897.88;4982212;28;20041;-58
2022/01/26 07:10:17;;;;;;;14.40;7.33;;;;;;;0.95;100.00;99898.75;4985930;28;20030;-58
2022/01/26 07:12:42;;;;;;;19.60;8.07;;;;;;;0.91;100.00;99905.34;4986441;28;20377;-58
2022/01/26 07:23:09;;;;;;;13.63;6.17;;;;;;;1.02;100.00;99905.75;4986276;28;20065;-57
2022/01/26 07:25:35;;;;;;;15.70;6.03;;;;;;;1.01;100.00;99906.56;4983558;28;20041;-53
2022/01/26 07:28:03;;;;;;;19.27;7.13;;;;;;;1.01;100.00;99904.03;4983871;28;20122;-56
2022/01/26 07:30:34;;;;;;;14.83;7.53;;;;;;;1.02;100.00;99903.22;4985723;28;20034;-54
2022/01/26 07:33:00;;;;;;;17.17;6.70;;;;;;;1.06;100.00;99907.59;4984055;28;20042;-55
2022/01/26 07:35:25;;;;;;;14.30;6.57;;;;;;;1.10;100.00;99903.53;4983645;28;20041;-58
2022/01/26 07:37:53;;;;;;;12.63;6.60;;;;;;;1.04;100.00;99900.75;4984742;28;20065;-55
2022/01/26 07:40:19;;;;;;;14.03;6.13;;;;;;;1.15;100.00;99907.09;4986907;28;20125;-55
2022/01/26 07:42:44;;;;;;;9.27;5.77;;;;;;;1.08;100.00;99912.69;4985324;28;20048;-57
2022/01/26 07:45:11;;;;;;;10.03;5.67;;;;;;;1.05;100.00;99920.16;4982617;28;20030;-55
2022/01/26 07:47:37;;;;;;;10.53;5.63;;;;;;;1.10;100.00;99909.47;4985261;28;20030;-58
2022/01/26 07:50:08;;;;;;;10.60;5.30;;;;;;;1.08;100.00;99915.22;4985864;28;20041;-58
2022/01/26 07:52:37;;;;;;;15.13;5.97;;;;;;;1.13;100.00;99914.63;4984931;28;20076;-59
2022/01/26 07:55:04;;;;;;;13.27;6.00;;;;;;;1.11;100.00;99921.25;4982440;28;20109;-56
2022/01/26 07:57:30;;;;;;;11.87;5.27;;;;;;;1.11;100.00;99906.09;4985465;28;20351;-57
2022/01/26 07:59:55;;;;;;;10.33;5.40;;;;;;;1.13;100.00;99907.03;4984990;28;20061;-58
2022/01/26 08:02:21;;;;;;;12.47;5.20;;;;;;;1.22;100.00;99904.00;4983795;28;20081;-58
2022/01/26 08:04:48;;;;;;;12.70;6.37;;;;;;;1.26;100.00;99914.28;4982646;28;20046;-58
2022/01/26 08:07:14;;;;;;;15.67;5.40;;;;;;;1.20;100.00;99914.03;4985869;28;20046;-55
2022/01/26 08:09:43;;;;;;;13.07;5.23;;;;;;;1.25;100.00;99914.22;4984882;28;20540;-58
2022/01/26 08:12:14;;;;;;;9.93;5.47;;;;;;;1.19;100.00;99907.25;4984764;28;20935;-56
2022/01/26 08:14:41;;;;;;;14.10;6.87;;;;;;;1.13;100.00;99923.84;4983322;28;20421;-59
2022/01/26 08:17:07;;;;;;;10.43;6.07;;;;;;;1.11;100.00;99911.16;4983956;28;20054;-57
2022/01/26 08:19:33;;;;;;;15.00;5.70;;;;;;;1.16;100.00;99913.84;4986589;28;20080;-55
2022/01/26 08:22:01;;;;;;;10.67;5.73;;;;;;;1.16;100.00;99911.34;4983540;28;20038;-54
2022/01/26 08:24:30;;;;;;;12.67;6.10;;;;;;;1.18;100.00;99909.75;4982682;28;20072;-56
2022/01/26 08:26:59;;;;;;;10.97;6.80;;;;;;;1.14;100.00;99907.91;4985587;28;20043;-56
2022/01/26 08:29:30;;;;;;;10.90;6.33;;;;;;;1.12;100.00;99904.44;4984953;28;20447;-57
2022/01/26 08:31:55;;;;;;;16.90;6.00;;;;;;;1.18;100.00;99899.66;4982464;28;20038;-57
2022/01/26 08:34:21;;;;;;;13.60;5.90;;;;;;;1.16;100.00;99911.34;4982789;28;20026;-56
2022/01/26 08:36:46;;;;;;;12.20;6.63;;;;;;;1.22;100.00;99909.94;4983664;28;20092;-58
2022/01/26 08:39:12;;;;;;;13.60;6.47;;;;;;;1.18;100.00;99905.56;4984375;28;20113;-59
2022/01/26 08:41:37;;;;;;;15.17;6.17;;;;;;;1.29;100.00;99895.84;4981557;28;20050;-57
2022/01/26 08:44:03;;;;;;;15.47;6.03;;;;;;;1.34;100.00;99907.00;4983673;28;20061;-55
2022/01/26 08:46:29;;;;;;;10.73;4.83;;;;;;;1.25;100.00;99897.41;4983545;28;20250;-58
2022/01/26 08:48:54;;;;;;;14.27;6.27;;;;;;;1.29;100.00;99901.78;4984634;28;20034;-59
2022/01/26 08:51:20;;;;;;;14.20;5.97;;;;;;;1.35;100.00;99911.25;4981449;28;20030;-59
2022/01/26 08:53:46;;;;;;;14.10;5.97;;;;;;;1.30;100.00;99903.50;4983928;28;20506;-57
2022/01/26 08:56:12;;;;;;;12.93;5.23;;;;;;;1.33;100.00;99895.16;4983535;28;20536;-58
2022/01/26 08:58:38;;;;;;;12.83;5.80;;;;;;;1.38;100.00;99908.84;4984013;28;20395;-58
2022/01/26 09:01:03;;;;;;;13.17;6.80;;;;;;;1.44;100.00;99906.56;4981642;28;20038;-59
2022/01/26 09:03:35;;;;;;;12.43;5.73;;;;;;;1.40;100.00;99898.81;4983597;28;20077;-59
2022/01/26 09:06:01;;;;;;;15.50;7.17;;;;;;;1.40;100.00;99912.25;4983634;28;20042;-58
2022/01/26 09:08:27;;;;;;;12.03;5.23;;;;;;;1.40;100.00;99909.75;4983435;28;20045;-57
2022/01/26 09:10:57;;;;;;;13.00;6.00;;;;;;;1.40;100.00;99908.91;4980931;28;20037;-59
2022/01/26 09:13:22;;;;;;;15.90;6.40;;;;;;;1.42;100.00;99909.81;4982926;28;20137;-58
2022/01/26 09:15:48;;;;;;;16.93;6.27;;;;;;;1.55;100.00;99915.38;4983919;28;20042;-56
2022/01/26 09:18:18;;;;;;;12.53;5.70;;;;;;;1.56;100.00;99906.13;4983442;28;20050;-56
2022/01/26 09:20:44;;;;;;;11.50;6.77;;;;;;;1.51;100.00;99920.25;4982054;28;20049;-56
2022/01/26 09:23:09;;;;;;;11.63;5.43;;;;;;;1.40;100.00;99894.56;4984792;28;20030;-57
2022/01/26 09:25:35;;;;;;;16.57;6.60;;;;;;;1.52;100.00;99900.13;4984987;28;20054;-59
2022/01/26 09:28:00;;;;;;;14.60;6.90;;;;;;;1.53;100.00;99900.97;4982159;28;20026;-58
2022/01/26 09:30:26;;;;;;;24.77;8.13;;;;;;;1.60;100.00;99891.16;4981356;28;20030;-58
2022/01/26 09:32:51;;;;;;;17.77;7.17;;;;;;;1.74;100.00;99889.13;4984119;28;20413;-58
2022/01/26 09:35:17;;;;;;;15.50;6.40;;;;;;;1.75;100.00;99891.69;4984737;28;20030;-57
2022/01/26 09:37:43;;;;;;;19.77;8.07;;;;;;;1.94;100.00;99889.81;4981592;28;20030;-58
2022/01/26 09:40:09;;;;;;;9.13;5.67;;;;;;;1.87;100.00;99882.84;4981021;28;20461;-59
2022/01/26 09:42:36;;;;;;;16.23;6.73;;;;;;;1.89;100.00;99881.22;4984436;28;20045;-59
2022/01/26 09:45:04;;;;;;;14.87;6.97;;;;;;;1.93;100.00;99888.97;4982620;28;20084;-57
2022/01/26 09:47:30;;;;;;;18.87;7.93;;;;;;;2.13;100.00;99879.53;4980545;28;20181;-58
2022/01/26 09:49:55;;;;;;;13.40;7.87;;;;;;;2.15;100.00;99876.25;4979629;28;20077;-61
2022/01/26 09:52:28;;;;;;;15.47;8.00;;;;;;;2.30;100.00;99876.78;4980914;28;20032;-60
2022/01/26 09:54:58;;;;;;;13.97;6.53;;;;;;;2.57;100.00;99878.50;4982890;28;20080;-59
2022/01/26 09:57:23;;;;;;;15.13;7.37;;;;;;;2.29;100.00;99876.75;4981654;28;20030;-59
2022/01/26 09:59:49;;;;;;;18.17;7.67;;;;;;;2.22;100.00;99873.13;4981363;28;20489;-58
2022/01/26 10:02:43;;;;;;;16.03;7.67;;;;;;;2.55;100.00;99875.91;4980730;28;20044;-57
2022/01/26 10:05:11;;;;;;;17.47;7.80;;;;;;;2.55;100.00;99873.38;4979325;28;20053;-58
2022/01/26 10:07:56;;;;;;;16.73;8.43;;;;;;;2.72;100.00;99868.84;4981171;28;20066;-60
2022/01/26 10:15:44;;;;;;;14.50;6.50;;;;;;;2.33;100.00;99865.03;4978507;28;20041;-60
2022/01/26 10:18:17;;;;;;;14.63;7.07;;;;;;;2.52;100.00;99857.22;4978892;28;20417;-57
2022/01/26 10:20:59;;;;;;;14.13;6.83;;;;;;;2.45;100.00;99855.31;4983112;28;20058;-61
2022/01/26 10:23:29;;;;;;;13.70;7.77;;;;;;;2.47;100.00;99836.84;4979419;28;20648;-60
2022/01/26 10:26:15;;;;;;;16.73;8.60;;;;;;;2.58;100.00;99843.13;4978650;28;20038;-60
2022/01/26 10:28:40;;;;;;;;;;;;;;;2.55;100.00;99839.59;4980303;28;20023;-61
2022/01/26 10:31:20;;;;;;;14.07;8.10;;;;;;;2.63;100.00;99836.50;4978285;28;19921;-60
2022/01/26 10:33:59;;;;;;;19.80;8.63;;;;;;;2.68;100.00;99831.59;4977519;28;20030;-60
2022/01/26 10:36:26;;;;;;;21.73;9.63;;;;;;;2.65;100.00;99827.31;4980775;28;20044;-61
2022/01/26 10:39:08;;;;;;;15.47;8.37;;;;;;;2.63;100.00;99823.03;4979647;28;20109;-57
2022/01/26 10:41:34;;;;;;;22.27;10.60;;;;;;;2.74;100.00;99825.06;4976607;28;20030;-59
2022/01/26 10:44:01;;;;;;;16.63;9.13;;;;;;;2.82;100.00;99821.91;4975716;28;20037;-59
2022/01/26 10:46:35;;;;;;;25.63;8.70;;;;;;;2.70;100.00;99818.19;4980803;28;20030;-59
2022/01/26 10:54:23;;;;;;;19.67;8.30;;;;;;;2.40;100.00;99812.16;4978450;28;20041;-58
2022/01/26 10:56:50;;;;;;;15.83;7.33;;;;;;;2.47;100.00;99790.41;4979608;28;20522;-62
2022/01/26 10:59:16;;;;;;;23.80;9.50;;;;;;;2.55;100.00;99791.53;4977043;28;20133;-59
2022/01/26 11:01:42;;;;;;;20.43;9.63;;;;;;;2.55;100.00;99786.47;4978360;28;20030;-60
2022/01/26 11:04:08;;;;;;;16.03;6.97;;;;;;;2.68;100.00;99794.47;4981547;28;20046;-58
2022/01/26 11:06:35;;;;;;;17.93;8.80;;;;;;;2.77;100.00;99788.84;4978528;28;20278;-58
2022/01/26 11:09:11;;;;;;;17.50;8.57;;;;;;;2.74;100.00;99778.63;4979256;28;20535;-58
2022/01/26 11:11:39;;;;;;;;;;;;;;;2.65;100.00;99789.34;4982372;28;20042;-58
2022/01/26 11:14:22;;;;;;;23.77;9.20;;;;;;;2.55;100.00;99778.88;4981738;28;19929;-58
2022/01/26 11:16:50;;;;;;;19.77;9.17;;;;;;;2.51;100.00;99782.97;4981390;28;20077;-57
2022/01/26 11:19:16;;;;;;;16.87;9.63;;;;;;;2.61;100.00;99776.53;4978450;28;20338;-57
2022/01/26 11:21:42;;;;;;;20.47;8.80;;;;;;;2.63;100.00;99757.22;4982438;28;20030;-59
2022/01/26 11:24:23;;;;;;;14.70;7.37;;;;;;;2.59;100.00;99761.28;4978707;28;20042;-59
2022/01/26 11:27:01;;;;;;;17.97;10.30;;;;;;;2.66;100.00;99769.94;4977922;28;20029;-59
2022/01/26 11:29:32;;;;;;;15.70;8.20;;;;;;;2.81;100.00;99761.94;4978576;28;20038;-58
2022/01/26 11:32:10;;;;;;;26.53;8.40;;;;;;;2.89;100.00;99752.91;4983543;28;20030;-56
2022/01/26 11:34:36;;;;;;;15.10;7.03;;;;;;;2.71;100.00;99751.56;4981993;28;20038;-57
2022/01/26 11:37:03;;;;;;;14.57;9.60;;;;;;;2.80;100.00;99758.53;4980810;28;20027;-56
2022/01/26 11:45:26;;;;;;;16.07;7.73;;;;;;;2.89;100.00;99750.34;4982787;28;20057;-59
2022/01/26 11:48:05;;;;;;;17.63;8.03;;;;;;;2.86;100.00;99750.28;4980019;28;20031;-57
2022/01/26 11:50:31;;;;;;;21.17;8.70;;;;;;;3.03;100.00;99739.81;4983952;28;20113;-55
2022/01/26 11:53:09;;;;;;;19.47;9.57;;;;;;;3.09;100.00;99731.56;4984911;28;20030;-59
2022/01/26 11:55:36;;;;;;;18.60;8.63;;;;;;;2.82;100.00;99745.94;4979968;28;20042;-57
2022/01/26 11:58:18;;;;;;;18.13;8.37;;;;;;;2.61;100.00;99724.25;4981997;28;20058;-59
2022/01/26 12:03:36;;;;;;;20.40;9.57;;;;;;;2.63;100.00;99734.44;4982390;28;20042;-58
2022/01/26 12:06:02;;;;;;;17.20;9.47;;;;;;;2.41;100.00;99726.97;4979700;28;20045;-59
2022/01/26 12:08:36;;;;;;;18.53;8.30;;;;;;;2.44;100.00;99738.06;4981219;28;20401;-58
2022/01/26 12:11:04;;;;;;;22.03;9.33;;;;;;;2.37;100.00;99731.09;4981999;28;20058;-60
2022/01/26 12:13:32;;;;;;;22.53;9.67;;;;;;;2.43;100.00;99735.47;4980835;28;20888;-57
2022/01/26 12:16:06;;;;;;;21.40;8.63;;;;;;;2.43;100.00;99736.31;4981161;28;20121;-60
2022/01/26 12:35:00;;;;;;;24.60;10.63;;;;;;;2.40;100.00;99727.78;4980065;28;20046;-57
2022/01/26 12:45:08;;;;;;;19.33;9.73;;;;;;;2.46;100.00;99695.91;4979476;28;19964;-56
2022/01/26 12:47:34;;;;;;;20.33;11.33;;;;;;;2.39;100.00;99691.50;4980591;28;20030;-56
2022/01/26 12:50:00;;;;;;;21.67;9.53;;;;;;;2.46;100.00;99695.91;4981806;28;20045;-57
2022/01/26 12:52:26;;;;;;;21.53;9.00;;;;;;;2.46;100.00;99698.44;4980055;28;20026;-58
2022/01/26 12:54:51;;;;;;;24.87;10.50;;;;;;;2.49;100.00;99701.09;4982901;28;20034;-57
2022/01/26 12:57:17;;;;;;;21.10;9.13;;;;;;;2.40;100.00;99695.75;4980760;28;20085;-55
2022/01/26 12:59:43;;;;;;;21.80;10.53;;;;;;;2.45;100.00;99698.44;4982464;28;20054;-54
2022/01/26 13:02:10;;;;;;;21.80;10.33;;;;;;;2.39;100.00;99688.09;4981599;28;20033;-56
2022/01/26 13:04:35;;;;;;;22.53;9.87;;;;;;;2.47;100.00;99690.06;4981722;28;20101;-58
2022/01/26 13:07:01;;;;;;;19.97;9.33;;;;;;;2.50;100.00;99719.69;4983495;28;20026;-59
2022/01/26 13:09:29;;;;;;;18.57;10.07;;;;;;;2.51;100.00;99698.59;4981301;28;20038;-58
2022/01/26 13:11:57;;;;;;;17.20;10.17;;;;;;;2.51;100.00;99696.94;4981507;28;20045;-59
2022/01/26 13:14:32;;;;;;;24.30;10.57;;;;;;;2.50;100.00;99685.09;4981744;28;20048;-58
2022/01/26 13:19:54;;;;;;;22.30;10.97;;;;;;;2.58;100.00;99692.91;4982150;28;20463;-58
2022/01/26 13:25:41;;;;;;;20.90;9.57;;;;;;;2.61;100.00;99696.41;4983944;28;20061;-58
2022/01/26 13:31:07;;;;;;;20.97;10.03;;;;;;;2.71;100.00;99698.41;4980635;28;20213;-59
2022/01/26 13:36:26;;;;;;;21.60;10.47;;;;;;;2.91;100.00;99693.91;4982243;28;20808;-61
2022/01/26 13:39:09;;;;;;;26.13;11.47;;;;;;;2.92;100.00;99694.75;4983665;28;20064;-59
2022/01/26 13:41:46;;;;;;;20.50;10.23;;;;;;;2.88;100.00;99692.97;4982718;28;20045;-59
2022/01/26 13:47:04;;;;;;;22.60;10.03;;;;;;;3.01;100.00;99700.09;4981193;28;20077;-60
2022/01/26 13:52:18;;;;;;;22.93;10.27;;;;;;;3.00;100.00;99695.81;4981640;28;20038;-59
2022/01/26 13:59:55;;;;;;;24.40;10.90;;;;;;;2.86;100.00;99689.50;4978850;28;20377;-60
2022/01/26 14:02:21;;;;;;;25.30;12.77;;;;;;;2.82;100.00;99695.28;4980903;28;20041;-60
2022/01/26 14:04:46;;;;;;;28.07;12.27;;;;;;;2.75;100.00;99694.28;4982535;28;20626;-61
2022/01/26 14:07:12;;;;;;;26.53;11.63;;;;;;;2.76;100.00;99691.75;4979859;28;20077;-61
2022/01/26 14:09:38;;;;;;;25.40;12.57;;;;;;;2.76;100.00;99706.97;4980080;28;20552;-61
2022/01/26 14:12:05;;;;;;;26.67;12.87;;;;;;;2.81;100.00;99691.91;4981149;28;20579;-61
2022/01/26 14:14:35;;;;;;;22.53;12.03;;;;;;;2.84;100.00;99683.56;4980233;28;20193;-60